BOX41R EDDH-LHBP
Flight info
| Callsign | BOX41R |
|---|---|
| Flight time | N/A |
| Altitude | 23000 |
| Route | RAMAR6G/33 RAMAR Z998 NUSGU/N0474F330 Z998 RATMO DCT BOLBO DCT OMELO DCT ODNEM DCT NIT/N0429F230 M748 ARFOX |
| Aircraft | B77L/H-SDE1E2E3FGHIJ2J3J4J5M1RWXY/LB1D1 |
Departure
| Time | 2026-04-24 16:40 |
|---|---|
| Airport | Hamburg Helmut Schmidt Airport (EDDH) |
Arrival
| Time | N/A |
|---|---|
| Airport | Budapest Liszt Ferenc International Airport (LHBP) |
| Time | Latitude | Longitude | Altitude | Speed | Heading |
|---|---|---|---|---|---|
| 2026-04-24 16:26 | 53.62739 | 9.99135 | 55 ft | 0 kts | 62° |
| 2026-04-24 16:33 | 53.62735 | 9.99013 | 55 ft | 0 kts | 152° |
| 2026-04-24 16:37 | 53.62729 | 9.99019 | 55 ft | 5 kts | 152° |
| 2026-04-24 16:37 | 53.62694 | 9.99049 | 55 ft | 11 kts | 152° |
| 2026-04-24 16:37 | 53.62616 | 9.99120 | 51 ft | 9 kts | 149° |
| 2026-04-24 16:38 | 53.62582 | 9.99203 | 50 ft | 9 kts | 97° |
| 2026-04-24 16:38 | 53.62595 | 9.99375 | 48 ft | 25 kts | 79° |
| 2026-04-24 16:38 | 53.62636 | 9.99738 | 50 ft | 29 kts | 74° |
| 2026-04-24 16:38 | 53.62770 | 9.99826 | 49 ft | 21 kts | 334° |
| 2026-04-24 16:39 | 53.62801 | 9.99800 | 48 ft | 0 kts | 333° |
| 2026-04-24 16:39 | 53.62807 | 9.99795 | 49 ft | 9 kts | 333° |
| 2026-04-24 16:39 | 53.63099 | 9.99542 | 51 ft | 97 kts | 332° |
| 2026-04-24 16:39 | 53.63999 | 9.98773 | 153 ft | 182 kts | 330° |
| 2026-04-24 16:40 | 53.65178 | 9.97826 | 1043 ft | 191 kts | 331° |
| 2026-04-24 16:40 | 53.66310 | 9.96864 | 2429 ft | 177 kts | 331° |
| 2026-04-24 16:40 | 53.67440 | 9.95868 | 3050 ft | 188 kts | 332° |
| 2026-04-24 16:40 | 53.68628 | 9.94864 | 3664 ft | 193 kts | 340° |
| 2026-04-24 16:41 | 53.70028 | 9.94630 | 4076 ft | 210 kts | 359° |
| 2026-04-24 16:41 | 53.71515 | 9.94670 | 4699 ft | 216 kts | 359° |
| 2026-04-24 16:41 | 53.73043 | 9.95258 | 5000 ft | 239 kts | 24° |
| 2026-04-24 16:41 | 53.74269 | 9.97254 | 5009 ft | 262 kts | 56° |
| 2026-04-24 16:42 | 53.74836 | 10.00256 | 5015 ft | 277 kts | 82° |
| 2026-04-24 16:42 | 53.74609 | 10.03540 | 5617 ft | 288 kts | 105° |
| 2026-04-24 16:42 | 53.73736 | 10.06626 | 6581 ft | 293 kts | 116° |
| 2026-04-24 16:42 | 53.72702 | 10.09626 | 7474 ft | 297 kts | 117° |
| 2026-04-24 16:43 | 53.71635 | 10.12623 | 8399 ft | 300 kts | 118° |
| 2026-04-24 16:43 | 53.70548 | 10.15664 | 9288 ft | 303 kts | 118° |
| 2026-04-24 16:43 | 53.69468 | 10.18700 | 10142 ft | 308 kts | 118° |
| 2026-04-24 16:43 | 53.68355 | 10.21846 | 10758 ft | 321 kts | 117° |
| 2026-04-24 16:44 | 53.67168 | 10.25227 | 10976 ft | 348 kts | 118° |
| 2026-04-24 16:44 | 53.65890 | 10.28880 | 11205 ft | 375 kts | 118° |
| 2026-04-24 16:44 | 53.64529 | 10.32770 | 11643 ft | 392 kts | 118° |
| 2026-04-24 16:44 | 53.63125 | 10.36776 | 12410 ft | 400 kts | 118° |
| 2026-04-24 16:45 | 53.61698 | 10.40842 | 13279 ft | 405 kts | 118° |
| 2026-04-24 16:45 | 53.60252 | 10.44962 | 14153 ft | 409 kts | 118° |
| 2026-04-24 16:45 | 53.58796 | 10.49105 | 14978 ft | 413 kts | 118° |
| 2026-04-24 16:45 | 53.57326 | 10.53286 | 15783 ft | 416 kts | 118° |
| 2026-04-24 16:46 | 53.55843 | 10.57498 | 16568 ft | 421 kts | 118° |
| 2026-04-24 16:46 | 53.54362 | 10.61697 | 17312 ft | 426 kts | 119° |
| 2026-04-24 16:46 | 53.52960 | 10.65669 | 18003 ft | 430 kts | 119° |
| 2026-04-24 16:46 | 53.51422 | 10.70017 | 18708 ft | 434 kts | 119° |
| 2026-04-24 16:47 | 53.49869 | 10.74399 | 19361 ft | 438 kts | 119° |
| 2026-04-24 16:47 | 53.48300 | 10.78819 | 20009 ft | 442 kts | 119° |
| 2026-04-24 16:47 | 53.46713 | 10.83282 | 20639 ft | 447 kts | 119° |
| 2026-04-24 16:47 | 53.45110 | 10.87782 | 21267 ft | 451 kts | 119° |
| 2026-04-24 16:48 | 53.43492 | 10.92317 | 21894 ft | 455 kts | 119° |
| 2026-04-24 16:48 | 53.41859 | 10.96885 | 22497 ft | 459 kts | 119° |
| 2026-04-24 16:48 | 53.40223 | 11.01452 | 23112 ft | 464 kts | 119° |
| 2026-04-24 16:48 | 53.38554 | 11.06104 | 23725 ft | 467 kts | 119° |
| 2026-04-24 16:49 | 53.36868 | 11.10792 | 24251 ft | 471 kts | 119° |
| 2026-04-24 16:49 | 53.35175 | 11.15493 | 24793 ft | 473 kts | 119° |
| 2026-04-24 16:49 | 53.33468 | 11.20226 | 25332 ft | 476 kts | 119° |
| 2026-04-24 16:49 | 53.31748 | 11.24983 | 25863 ft | 479 kts | 120° |
| 2026-04-24 16:50 | 53.30497 | 11.28117 | 26203 ft | 482 kts | 125° |
| 2026-04-24 16:50 | 53.27519 | 11.33695 | 26853 ft | 488 kts | 135° |
| 2026-04-24 16:50 | 53.24927 | 11.37404 | 27351 ft | 492 kts | 142° |
| 2026-04-24 16:50 | 53.22117 | 11.40705 | 27832 ft | 495 kts | 144° |
| 2026-04-24 16:51 | 53.20227 | 11.42867 | 28138 ft | 497 kts | 144° |
| 2026-04-24 16:51 | 53.17364 | 11.46120 | 28619 ft | 500 kts | 144° |
| 2026-04-24 16:51 | 53.13546 | 11.50462 | 29269 ft | 502 kts | 144° |
| 2026-04-24 16:51 | 53.10656 | 11.53735 | 29767 ft | 503 kts | 144° |
| 2026-04-24 16:52 | 53.07736 | 11.56980 | 30266 ft | 504 kts | 145° |
| 2026-04-24 16:52 | 53.04822 | 11.60223 | 30673 ft | 504 kts | 144° |
| 2026-04-24 16:52 | 53.02893 | 11.62385 | 30947 ft | 505 kts | 144° |
| 2026-04-24 16:52 | 52.99986 | 11.65672 | 31350 ft | 505 kts | 144° |
| 2026-04-24 16:53 | 52.97091 | 11.68975 | 31785 ft | 504 kts | 144° |
| 2026-04-24 16:53 | 52.94208 | 11.72278 | 32259 ft | 503 kts | 144° |
| 2026-04-24 16:53 | 52.91335 | 11.75574 | 32680 ft | 502 kts | 144° |
| 2026-04-24 16:53 | 52.88454 | 11.78878 | 33087 ft | 502 kts | 143° |
| 2026-04-24 16:54 | 52.82691 | 11.85470 | 33113 ft | 506 kts | 143° |
| 2026-04-24 16:54 | 52.76931 | 11.92023 | 33099 ft | 500 kts | 143° |
| 2026-04-24 16:55 | 52.71194 | 11.98526 | 33104 ft | 499 kts | 143° |
| 2026-04-24 16:55 | 52.65465 | 12.05000 | 33108 ft | 499 kts | 143° |
| 2026-04-24 16:56 | 52.59714 | 12.11479 | 33108 ft | 500 kts | 143° |
| 2026-04-24 16:56 | 52.53992 | 12.17905 | 33104 ft | 501 kts | 143° |
| 2026-04-24 16:57 | 52.48225 | 12.24359 | 33102 ft | 501 kts | 143° |
| 2026-04-24 16:57 | 52.42452 | 12.30799 | 33103 ft | 501 kts | 143° |
| 2026-04-24 16:58 | 52.36671 | 12.37228 | 33102 ft | 502 kts | 143° |
| 2026-04-24 16:58 | 52.30889 | 12.43636 | 33097 ft | 502 kts | 143° |
| 2026-04-24 16:59 | 52.25132 | 12.49997 | 33099 ft | 502 kts | 143° |
| 2026-04-24 17:00 | 52.16457 | 12.59544 | 33103 ft | 501 kts | 143° |
| 2026-04-24 17:00 | 52.07774 | 12.69054 | 33094 ft | 501 kts | 142° |
| 2026-04-24 17:01 | 51.99116 | 12.78492 | 33092 ft | 500 kts | 142° |
| 2026-04-24 17:02 | 51.90437 | 12.87907 | 33100 ft | 499 kts | 142° |
| 2026-04-24 17:02 | 51.84653 | 12.94157 | 33106 ft | 499 kts | 142° |
| 2026-04-24 17:03 | 51.76005 | 13.03467 | 33104 ft | 499 kts | 142° |
| 2026-04-24 17:04 | 51.70218 | 13.09672 | 33104 ft | 499 kts | 142° |
| 2026-04-24 17:04 | 51.61527 | 13.18954 | 33107 ft | 500 kts | 142° |
| 2026-04-24 17:05 | 51.55725 | 13.25127 | 33104 ft | 500 kts | 142° |
| 2026-04-24 17:06 | 51.47046 | 13.34329 | 33100 ft | 500 kts | 143° |
| 2026-04-24 17:06 | 51.38304 | 13.43546 | 33115 ft | 501 kts | 143° |
| 2026-04-24 17:07 | 51.32457 | 13.49690 | 33120 ft | 502 kts | 143° |
| 2026-04-24 17:08 | 51.20798 | 13.61885 | 33129 ft | 502 kts | 143° |
| 2026-04-24 17:08 | 51.14937 | 13.67987 | 33135 ft | 502 kts | 143° |
| 2026-04-24 17:09 | 51.03236 | 13.80114 | 33133 ft | 501 kts | 143° |
| 2026-04-24 17:10 | 50.91565 | 13.92140 | 33127 ft | 502 kts | 143° |
| 2026-04-24 17:12 | 50.71260 | 14.21276 | 33110 ft | 493 kts | 128° |